< < Back
Terminal Aerodrome Forecast


Current Version              Previous Versions:   1  2  3  4  5  6  7  8  9  

Terminal Aerodrome Forecast

242
FTUS42 KJAX 300927 AAB
TAFGNV
TAF AMD
KGNV 300927Z 3009/3106 06006KT P6SM SCT010
     FM301300 07009KT P6SM SCT015 SCT050 BKN100
     FM301800 08012G20KT 6SM SHRA VCTS SCT025CB BKN040 OVC060
     FM302300 08010KT P6SM VCSH SCT025 BKN050 OVC060=

Latest METAR

878
SAUS70 KWBC 301000 RRB
MTRGNV
METAR KGNV 300953Z AUTO 06003KT 10SM FEW012 23/22 A2996 RMK AO2 SLP141
T02330222


USA.gov is the U.S. government's official web portal to all federal, state and local government web resources and services.